Time;durP1;ratioP1;P1;durP2;ratioP2;P2;SDS_P1;SDS_P2;PMS_P1;PMS_P2;Temp;Humidity;BMP_temperature;BMP_pressure;BME280_temperature;BME280_humidity;BME280_pressure;Samples;Min_cycle;Max_cycle;Signal;HPM_P1;HPM_P2
2021/05/05 00:01:21;;;;;;;1.58;0.52;;;;;;;6.46;88.30;97704.72;5032909;28;20542;-73
2021/05/05 00:03:46;;;;;;;1.23;0.63;;;;;;;6.54;88.54;97716.09;5051168;28;20095;-73
2021/05/05 00:06:13;;;;;;;2.20;0.50;;;;;;;6.53;87.31;97719.00;5051575;28;20478;-72
2021/05/05 00:08:39;;;;;;;3.65;0.68;;;;;;;6.44;88.31;97709.47;5030543;28;20036;-73
2021/05/05 00:11:04;;;;;;;1.23;0.50;;;;;;;6.49;88.37;97707.81;5050553;28;20397;-73
2021/05/05 00:13:30;;;;;;;2.67;0.45;;;;;;;6.39;87.55;97690.44;5049533;28;20025;-73
2021/05/05 00:15:55;;;;;;;2.70;0.70;;;;;;;6.43;88.35;97707.81;5051343;28;20102;-73
2021/05/05 00:18:21;;;;;;;2.20;0.63;;;;;;;6.32;88.16;97688.59;5051222;28;20112;-73
2021/05/05 00:20:46;;;;;;;4.40;0.50;;;;;;;6.29;87.95;97683.63;5046382;28;20025;-73
2021/05/05 00:23:11;;;;;;;1.90;0.40;;;;;;;6.29;88.60;97696.22;5047851;28;20116;-73
2021/05/05 00:25:37;;;;;;;0.30;0.22;;;;;;;6.30;88.56;97697.88;5050788;28;20033;-73
2021/05/05 00:28:02;;;;;;;1.27;0.57;;;;;;;6.29;89.21;97706.97;5050091;28;20063;-72
2021/05/05 00:30:28;;;;;;;2.70;0.60;;;;;;;6.29;89.43;97702.44;5025113;28;20022;-72
2021/05/05 00:32:53;;;;;;;1.80;0.50;;;;;;;6.30;89.46;97698.69;5031278;28;20051;-72
2021/05/05 00:35:19;;;;;;;5.38;0.60;;;;;;;6.32;89.50;97712.75;5049456;28;20112;-74
2021/05/05 00:37:44;;;;;;;1.55;0.55;;;;;;;6.32;89.93;97707.38;5050293;28;20029;-73
2021/05/05 00:40:11;;;;;;;5.38;0.90;;;;;;;6.24;89.16;97704.06;5045858;28;20025;-72
2021/05/05 00:42:37;;;;;;;3.28;0.65;;;;;;;6.33;89.71;97716.28;5030987;28;20029;-72
2021/05/05 00:45:06;;;;;;;1.83;0.47;;;;;;;6.38;90.01;97719.19;5027599;28;20033;-72
2021/05/05 00:47:32;;;;;;;2.58;0.50;;;;;;;6.26;89.21;97705.53;5024879;28;20108;-73
2021/05/05 00:49:57;;;;;;;2.75;1.10;;;;;;;6.35;88.97;97727.66;5040935;28;20040;-73
2021/05/05 00:52:23;;;;;;;3.42;0.60;;;;;;;6.27;89.78;97709.84;5047653;28;20036;-72
2021/05/05 00:54:49;;;;;;;4.07;0.70;;;;;;;6.22;89.02;97700.75;5049876;28;20123;-72
2021/05/05 00:57:15;;;;;;;3.63;0.63;;;;;;;6.26;88.71;97694.78;5049844;28;20179;-72
2021/05/05 00:59:41;;;;;;;3.45;0.60;;;;;;;6.33;88.71;97705.53;5034085;28;20025;-74
2021/05/05 01:02:06;;;;;;;2.38;0.52;;;;;;;6.18;88.98;97688.75;5049127;28;20385;-74
2021/05/05 01:04:32;;;;;;;2.15;0.85;;;;;;;6.10;89.58;97679.88;5016012;28;20060;-73
2021/05/05 01:06:57;;;;;;;1.20;0.50;;;;;;;6.18;90.23;97678.00;5050621;28;20051;-74
2021/05/05 01:09:23;;;;;;;3.13;0.65;;;;;;;6.10;90.12;97660.22;5049463;28;20068;-74
2021/05/05 01:11:49;;;;;;;6.93;0.60;;;;;;;6.18;90.03;97662.72;5027921;28;20029;-74
2021/05/05 01:14:16;;;;;;;3.35;1.30;;;;;;;6.02;90.60;97637.06;5032897;28;20036;-73
2021/05/05 01:16:42;;;;;;;2.75;0.50;;;;;;;6.11;90.90;97640.41;5050245;28;20021;-72
2021/05/05 01:19:07;;;;;;;2.40;0.77;;;;;;;6.00;90.44;97655.25;5036195;28;20021;-72
2021/05/05 01:21:33;;;;;;;2.17;0.55;;;;;;;6.01;90.78;97650.72;5049744;28;20037;-73
2021/05/05 01:23:58;;;;;;;3.03;0.90;;;;;;;5.98;90.50;97635.00;5050332;28;20029;-73
2021/05/05 01:26:23;;;;;;;6.05;0.75;;;;;;;5.95;91.02;97630.03;5022671;28;20082;-72
2021/05/05 01:28:49;;;;;;;4.35;0.80;;;;;;;5.95;90.90;97635.41;5040604;28;20025;-72
2021/05/05 01:31:16;;;;;;;1.73;0.70;;;;;;;5.93;91.70;97654.38;5048080;28;20021;-73
2021/05/05 01:33:42;;;;;;;3.00;0.85;;;;;;;5.96;91.61;97658.53;5040969;28;20029;-73
2021/05/05 01:36:10;;;;;;;3.38;0.60;;;;;;;5.95;91.43;97646.13;5050029;28;20104;-72
2021/05/05 01:38:36;;;;;;;6.32;0.90;;;;;;;5.95;92.14;97640.75;5031102;28;20064;-73
2021/05/05 01:41:03;;;;;;;6.43;0.80;;;;;;;5.96;92.00;97634.38;5049320;28;20112;-71
2021/05/05 01:43:28;;;;;;;2.83;0.90;;;;;;;6.01;91.33;97623.88;5048123;28;20079;-72
2021/05/05 01:45:54;;;;;;;2.72;0.88;;;;;;;5.98;91.45;97621.59;5050359;28;20040;-72
2021/05/05 01:48:20;;;;;;;2.22;0.80;;;;;;;6.04;91.26;97628.81;5031456;28;20025;-72
2021/05/05 01:50:46;;;;;;;2.30;0.70;;;;;;;6.00;91.78;97630.25;5032612;28;20401;-74
2021/05/05 01:53:11;;;;;;;4.20;0.90;;;;;;;5.99;91.67;97620.53;5028501;28;20397;-73
2021/05/05 01:55:37;;;;;;;4.05;0.80;;;;;;;6.00;91.78;97632.94;5051134;28;20064;-73
2021/05/05 01:58:02;;;;;;;4.45;1.20;;;;;;;6.02;92.03;97637.06;5034992;28;20029;-73
2021/05/05 02:00:30;;;;;;;3.38;0.63;;;;;;;5.96;92.26;97645.94;5049778;28;20025;-73
2021/05/05 02:02:55;;;;;;;3.28;0.77;;;;;;;5.98;91.93;97645.75;5024626;28;20037;-72
2021/05/05 02:05:21;;;;;;;3.55;1.17;;;;;;;5.99;92.20;97642.03;5017440;28;20032;-73
2021/05/05 02:07:46;;;;;;;6.00;1.10;;;;;;;5.94;92.56;97634.56;5031641;28;20059;-73
2021/05/05 02:10:14;;;;;;;1.60;0.50;;;;;;;5.97;92.53;97663.69;5034117;28;20066;-73
2021/05/05 02:12:40;;;;;;;2.55;0.50;;;;;;;6.02;92.45;97663.09;5019397;28;20025;-72
2021/05/05 02:15:08;;;;;;;1.95;0.75;;;;;;;6.04;92.91;97667.22;5049770;28;20060;-72
2021/05/05 02:17:33;;;;;;;6.03;1.05;;;;;;;5.99;92.27;97658.13;5039679;28;20044;-72
2021/05/05 02:19:59;;;;;;;1.63;0.60;;;;;;;6.01;91.93;97640.78;5049764;28;20123;-73
2021/05/05 02:22:24;;;;;;;3.38;0.80;;;;;;;5.98;91.82;97635.00;5032221;28;20033;-73
2021/05/05 02:24:49;;;;;;;1.88;0.80;;;;;;;6.03;91.64;97643.28;5050887;28;20484;-72
2021/05/05 02:27:15;;;;;;;3.15;0.77;;;;;;;5.96;91.80;97619.09;5049642;28;20115;-72
2021/05/05 02:29:41;;;;;;;1.45;0.60;;;;;;;5.90;91.90;97628.75;5049723;28;20123;-73
2021/05/05 02:32:10;;;;;;;5.40;0.90;;;;;;;6.01;91.98;97630.06;5049791;28;20035;-72
2021/05/05 02:34:37;;;;;;;2.40;0.90;;;;;;;5.96;91.95;97616.41;5049542;28;20124;-72
2021/05/05 02:37:05;;;;;;;3.28;0.73;;;;;;;5.96;92.38;97634.38;5048922;28;20507;-73
2021/05/05 02:39:30;;;;;;;3.22;0.68;;;;;;;5.87;92.92;97617.63;5025471;28;20548;-72
2021/05/05 02:41:55;;;;;;;4.63;1.30;;;;;;;5.93;93.02;97633.75;5030241;28;20028;-73
2021/05/05 02:44:20;;;;;;;2.20;1.17;;;;;;;5.93;93.33;97646.31;5049060;28;20473;-72
2021/05/05 02:46:46;;;;;;;2.65;0.77;;;;;;;5.93;92.41;97635.59;5044400;28;20079;-73
2021/05/05 02:49:11;;;;;;;2.65;0.77;;;;;;;6.00;91.85;97657.94;5049333;28;20056;-73
2021/05/05 02:51:37;;;;;;;2.63;0.73;;;;;;;5.94;91.82;97650.69;5025751;28;20112;-73
2021/05/05 02:54:03;;;;;;;1.77;0.70;;;;;;;5.93;91.75;97641.81;5034243;28;20136;-73
2021/05/05 02:56:29;;;;;;;6.05;0.75;;;;;;;5.93;91.88;97649.84;5038628;28;20470;-73
2021/05/05 02:58:54;;;;;;;2.40;0.68;;;;;;;5.95;91.90;97651.50;5052421;28;20078;-73
2021/05/05 03:01:20;;;;;;;3.13;0.70;;;;;;;5.90;92.61;97647.56;5052906;28;20445;-73
2021/05/05 03:03:45;;;;;;;4.82;1.00;;;;;;;5.86;92.82;97648.97;5053663;28;20029;-73
2021/05/05 03:06:11;;;;;;;4.82;1.00;;;;;;;5.80;92.90;97636.38;5053015;28;20028;-72
2021/05/05 03:08:36;;;;;;;3.72;1.38;;;;;;;5.77;92.03;97639.47;5053403;28;20112;-73
2021/05/05 03:11:02;;;;;;;3.55;1.02;;;;;;;5.84;93.03;97656.41;5054507;28;20021;-73
2021/05/05 03:13:28;;;;;;;3.05;1.15;;;;;;;5.81;92.80;97662.16;5027000;28;20017;-73
2021/05/05 03:15:54;;;;;;;2.42;1.00;;;;;;;5.86;93.75;97661.56;5039180;28;20597;-73
2021/05/05 03:18:19;;;;;;;1.73;0.90;;;;;;;5.87;92.97;97650.66;5053012;28;20363;-73
2021/05/05 03:20:44;;;;;;;5.28;1.00;;;;;;;5.87;92.60;97649.81;5035192;28;20069;-73
2021/05/05 03:23:10;;;;;;;5.90;0.93;;;;;;;5.77;92.99;97625.22;5033582;28;20037;-73
2021/05/05 03:25:35;;;;;;;2.92;0.90;;;;;;;5.81;93.08;97629.97;5052762;28;20035;-72
2021/05/05 03:28:00;;;;;;;3.15;0.70;;;;;;;5.81;92.88;97635.31;5034568;28;20036;-72
2021/05/05 03:30:26;;;;;;;2.58;0.73;;;;;;;5.79;93.53;97637.41;5053245;28;20044;-73
2021/05/05 03:32:51;;;;;;;5.45;1.15;;;;;;;5.78;93.12;97624.19;5046200;28;20657;-72
2021/05/05 03:35:16;;;;;;;1.80;1.00;;;;;;;5.79;92.90;97640.09;5035220;28;20029;-73
2021/05/05 03:37:42;;;;;;;5.22;1.17;;;;;;;5.74;93.46;97630.97;5036351;28;20029;-72
2021/05/05 03:40:09;;;;;;;5.00;1.23;;;;;;;5.80;93.82;97632.88;5034731;28;20221;-72
2021/05/05 03:42:34;;;;;;;4.63;0.98;;;;;;;5.72;93.88;97628.50;5051447;28;20090;-73
2021/05/05 03:45:02;;;;;;;3.70;1.20;;;;;;;5.91;93.48;97645.69;5051017;28;20077;-75
2021/05/05 03:47:27;;;;;;;3.25;1.15;;;;;;;5.86;93.36;97637.41;5034509;28;20480;-71
2021/05/05 03:49:52;;;;;;;3.65;1.30;;;;;;;5.74;93.88;97625.59;5052268;28;20114;-71
2021/05/05 03:52:18;;;;;;;5.38;1.00;;;;;;;5.76;93.57;97645.84;5049314;28;20025;-70
2021/05/05 03:54:43;;;;;;;2.15;1.15;;;;;;;5.78;93.98;97648.34;5066509;28;20037;-73
2021/05/05 03:57:09;;;;;;;4.07;1.10;;;;;;;5.72;94.05;97633.88;5038161;28;20049;-71
2021/05/05 03:59:35;;;;;;;5.13;1.17;;;;;;;5.78;93.66;97641.09;5057190;28;20484;-75
2021/05/05 04:02:01;;;;;;;3.53;1.13;;;;;;;5.78;94.63;97645.66;5050178;28;20405;-71
2021/05/05 04:04:27;;;;;;;2.10;1.10;;;;;;;5.68;93.73;97635.28;5067057;28;20084;-75
2021/05/05 04:06:52;;;;;;;2.50;1.10;;;;;;;5.78;93.82;97649.16;5054536;28;20028;-74
2021/05/05 04:09:17;;;;;;;1.20;0.95;;;;;;;5.78;94.22;97656.38;5065564;28;20047;-75
2021/05/05 04:11:42;;;;;;;2.22;1.05;;;;;;;5.71;94.85;97648.28;5035957;28;20486;-75
2021/05/05 04:14:08;;;;;;;3.30;1.08;;;;;;;5.77;94.29;97634.09;5050446;28;20079;-73
2021/05/05 04:16:35;;;;;;;7.43;1.50;;;;;;;5.69;94.27;97628.91;5019977;28;20049;-74
2021/05/05 04:19:00;;;;;;;5.32;1.02;;;;;;;5.72;94.32;97631.19;5039556;28;20059;-74
2021/05/05 04:21:26;;;;;;;9.50;1.52;;;;;;;5.63;94.00;97621.63;5015792;28;20045;-74
2021/05/05 04:23:51;;;;;;;5.65;1.30;;;;;;;5.68;93.97;97635.28;5050425;28;20072;-74
2021/05/05 04:26:17;;;;;;;4.22;1.40;;;;;;;5.79;93.46;97656.19;5049814;28;20375;-74
2021/05/05 04:28:43;;;;;;;4.03;1.23;;;;;;;5.73;94.06;97648.94;5051790;28;20044;-73
2021/05/05 04:31:09;;;;;;;6.03;1.35;;;;;;;5.80;93.58;97665.06;5045342;28;20029;-75
2021/05/05 04:33:34;;;;;;;5.80;1.50;;;;;;;5.82;94.12;97674.56;5020821;28;20040;-74
2021/05/05 04:35:59;;;;;;;8.32;1.48;;;;;;;5.73;92.53;97678.44;5039583;28;20536;-73
2021/05/05 04:38:25;;;;;;;6.00;1.63;;;;;;;5.76;92.89;97683.41;5036256;28;20029;-71
2021/05/05 04:40:50;;;;;;;5.18;1.33;;;;;;;5.69;92.43;97663.78;5036512;28;20040;-75
2021/05/05 04:43:15;;;;;;;3.38;1.45;;;;;;;5.85;92.27;97676.84;5051915;28;20124;-75
2021/05/05 04:45:41;;;;;;;6.20;1.13;;;;;;;5.74;92.16;97680.13;5050713;28;20033;-75
2021/05/05 04:48:06;;;;;;;8.40;1.42;;;;;;;5.76;92.25;97680.72;5034311;28;20108;-76
2021/05/05 04:50:32;;;;;;;4.45;1.67;;;;;;;5.94;91.68;97693.63;5026141;28;20401;-71
2021/05/05 04:52:57;;;;;;;4.75;1.20;;;;;;;5.88;91.95;97694.41;5046211;28;20043;-71
2021/05/05 04:55:22;;;;;;;4.78;1.30;;;;;;;5.71;92.59;97686.72;5047653;28;20029;-72
2021/05/05 04:57:48;;;;;;;6.65;1.95;;;;;;;5.85;91.77;97709.06;5049295;28;20438;-71
2021/05/05 05:00:13;;;;;;;4.75;1.33;;;;;;;5.88;92.62;97702.47;5049230;28;20452;-72
2021/05/05 05:02:39;;;;;;;3.03;1.55;;;;;;;6.05;92.52;97719.06;5050517;28;20048;-70
2021/05/05 05:05:05;;;;;;;4.00;1.63;;;;;;;6.00;91.51;97708.09;5049976;28;20068;-71
2021/05/05 05:07:31;;;;;;;6.10;1.55;;;;;;;6.02;92.22;97714.94;5048971;28;20063;-75
2021/05/05 05:09:57;;;;;;;4.28;1.60;;;;;;;5.98;92.06;97721.75;5048418;28;20030;-74
2021/05/05 05:12:24;;;;;;;4.07;1.40;;;;;;;6.00;91.32;97727.75;5051260;28;20033;-73
2021/05/05 05:14:49;;;;;;;4.28;1.60;;;;;;;5.97;91.50;97721.94;5051452;28;20021;-79
2021/05/05 05:17:14;;;;;;;3.75;1.60;;;;;;;6.00;90.85;97729.59;5028833;28;20482;-74
2021/05/05 05:19:40;;;;;;;4.88;1.83;;;;;;;6.14;91.20;97744.72;5026446;28;20025;-78
2021/05/05 05:22:05;;;;;;;7.43;1.65;;;;;;;6.09;91.12;97744.50;5013882;28;20075;-77
2021/05/05 05:24:30;;;;;;;6.05;1.42;;;;;;;5.97;90.88;97740.72;5026604;28;20070;-77
2021/05/05 05:26:56;;;;;;;2.90;1.23;;;;;;;6.02;90.88;97731.03;5052130;28;20390;-75
2021/05/05 05:29:21;;;;;;;4.75;1.45;;;;;;;6.19;90.88;97747.63;5053195;28;20043;-76
2021/05/05 05:31:48;;;;;;;7.97;1.30;;;;;;;6.17;90.69;97741.63;5027627;28;20171;-72
2021/05/05 05:34:13;;;;;;;7.55;1.30;;;;;;;6.28;90.09;97754.47;5041264;28;20150;-72
2021/05/05 05:36:39;;;;;;;7.25;1.45;;;;;;;6.26;90.13;97759.25;5041695;28;20890;-72
2021/05/05 05:39:05;;;;;;;2.47;1.10;;;;;;;6.41;90.15;97760.94;5039788;28;20082;-75
2021/05/05 05:41:31;;;;;;;5.72;1.30;;;;;;;6.53;89.31;97768.19;5040203;28;20190;-75
2021/05/05 05:43:56;;;;;;;2.78;1.15;;;;;;;6.73;87.99;97760.19;5021836;28;20053;-72
2021/05/05 05:46:21;;;;;;;7.80;1.38;;;;;;;6.78;88.21;97749.63;5039285;28;20021;-72
2021/05/05 05:48:47;;;;;;;2.13;0.95;;;;;;;6.89;87.53;97760.81;5034128;28;20044;-72
2021/05/05 05:51:12;;;;;;;5.93;1.15;;;;;;;6.86;87.11;97761.22;5035791;28;20029;-73
2021/05/05 05:53:38;;;;;;;2.65;1.02;;;;;;;6.78;85.95;97757.69;5021502;28;20029;-77
2021/05/05 05:56:03;;;;;;;4.60;1.10;;;;;;;6.81;86.61;97783.34;5028489;28;20040;-77
2021/05/05 05:58:28;;;;;;;1.50;0.88;;;;;;;6.79;86.09;97771.97;5025801;28;20513;-71
2021/05/05 06:00:54;;;;;;;5.57;1.17;;;;;;;6.93;85.47;97767.44;5036071;28;20033;-70
2021/05/05 06:03:19;;;;;;;4.35;0.95;;;;;;;6.82;85.58;97776.13;5046858;28;20422;-67
2021/05/05 06:05:44;;;;;;;5.75;1.10;;;;;;;7.05;85.42;97786.47;5050134;28;20107;-71
2021/05/05 06:08:10;;;;;;;4.15;1.10;;;;;;;7.26;84.06;97783.59;5048233;28;20055;-71
2021/05/05 06:10:35;;;;;;;6.22;1.15;;;;;;;7.49;83.50;97787.72;5029829;28;20116;-67
2021/05/05 06:13:00;;;;;;;4.63;1.05;;;;;;;7.47;82.01;97791.44;5047726;28;20047;-68
2021/05/05 06:15:26;;;;;;;4.32;1.20;;;;;;;7.36;82.38;97785.84;5030512;28;20028;-71
2021/05/05 06:17:51;;;;;;;8.88;2.00;;;;;;;8.10;81.62;97798.97;5047806;28;20106;-71
2021/05/05 06:20:17;;;;;;;3.97;0.90;;;;;;;8.16;80.62;97796.47;5049815;28;20111;-72
2021/05/05 06:22:43;;;;;;;4.57;1.02;;;;;;;9.80;71.73;97782.13;5031991;28;20120;-70
2021/05/05 06:25:09;;;;;;;4.85;1.88;;;;;;;10.48;68.49;97783.03;5049450;28;20048;-73
2021/05/05 06:27:35;;;;;;;6.93;1.30;;;;;;;9.97;70.31;97785.03;5029492;28;20500;-76
2021/05/05 06:30:01;;;;;;;7.68;1.70;;;;;;;10.08;70.93;97789.69;5051302;28;20033;-75
2021/05/05 06:32:26;;;;;;;5.82;1.10;;;;;;;9.59;72.30;97794.16;5052810;28;20107;-74
2021/05/05 06:34:53;;;;;;;3.80;1.02;;;;;;;10.15;69.80;97813.94;5054070;28;20481;-72
2021/05/05 06:37:18;;;;;;;6.30;1.10;;;;;;;9.86;70.18;97805.53;5047670;28;20051;-80
2021/05/05 06:39:44;;;;;;;3.92;1.13;;;;;;;8.74;73.93;97826.94;5029066;28;20025;-76
2021/05/05 06:42:09;;;;;;;4.15;1.00;;;;;;;8.71;75.29;97819.28;5030511;28;20028;-74
2021/05/05 06:44:34;;;;;;;7.65;0.90;;;;;;;8.23;76.50;97822.38;5043262;28;20079;-71
2021/05/05 06:47:00;;;;;;;3.13;1.00;;;;;;;10.49;67.85;97809.00;5039329;28;20526;-69
2021/05/05 06:49:25;;;;;;;5.32;0.95;;;;;;;11.16;66.24;97811.63;5051328;28;20025;-67
2021/05/05 06:51:51;;;;;;;6.97;0.90;;;;;;;11.36;64.25;97830.28;5052577;28;20039;-67
2021/05/05 06:54:17;;;;;;;6.10;0.90;;;;;;;11.84;64.04;97824.69;5050706;28;20023;-69
2021/05/05 06:56:43;;;;;;;3.67;0.80;;;;;;;11.51;65.08;97791.91;5034186;28;20033;-77
2021/05/05 06:59:08;;;;;;;5.70;0.85;;;;;;;11.59;66.09;97830.31;5047359;28;20017;-71
2021/05/05 07:01:38;;;;;;;6.60;0.90;;;;;;;10.44;65.83;97834.03;5052270;28;20043;-68
2021/05/05 07:04:07;;;;;;;5.57;1.33;;;;;;;9.61;68.62;97832.53;5051155;28;20037;-72
2021/05/05 07:06:33;;;;;;;;;;;;;;;9.08;70.36;97845.63;5049808;28;20030;-71
2021/05/05 07:08:59;;;;;;;11.23;1.33;;;;;;;8.97;71.82;97839.06;5043774;28;19920;-71
2021/05/05 07:11:26;;;;;;;3.50;1.10;;;;;;;9.08;70.88;97856.41;5027767;28;20023;-71
2021/05/05 07:13:51;;;;;;;6.05;1.17;;;;;;;8.85;71.36;97849.69;5049492;28;20112;-71
2021/05/05 07:16:17;;;;;;;4.78;1.00;;;;;;;8.62;70.43;97858.31;5029421;28;20210;-72
2021/05/05 07:18:42;;;;;;;2.25;0.82;;;;;;;8.74;71.19;97861.16;5034889;28;20049;-71
2021/05/05 07:21:08;;;;;;;3.05;1.00;;;;;;;8.52;68.78;97855.25;5049285;28;20032;-71
2021/05/05 07:23:33;;;;;;;3.17;0.82;;;;;;;8.59;69.08;97866.00;5035286;28;20033;-72
2021/05/05 07:25:58;;;;;;;7.10;1.00;;;;;;;8.56;69.01;97862.69;5057140;28;20037;-75
2021/05/05 07:28:24;;;;;;;8.05;1.10;;;;;;;8.39;68.79;97869.59;5064221;28;20025;-73
2021/05/05 07:30:49;;;;;;;2.83;0.93;;;;;;;8.15;68.73;97872.94;5057491;28;20472;-72
2021/05/05 07:33:15;;;;;;;4.85;1.13;;;;;;;11.11;60.75;97888.13;5057859;28;20509;-74
2021/05/05 07:35:45;;;;;;;5.80;1.10;;;;;;;13.79;54.24;97875.56;5056467;28;20029;-73
2021/05/05 07:50:53;;;;;;;4.45;0.88;;;;;;;16.60;43.48;97853.25;5054159;28;20033;-72
2021/05/05 07:53:19;;;;;;;3.60;1.05;;;;;;;14.30;48.41;97858.34;5052822;28;20514;-71
2021/05/05 07:55:44;;;;;;;5.20;0.98;;;;;;;16.25;43.91;97856.63;5036874;28;20059;-72
2021/05/05 07:58:11;;;;;;;7.15;1.70;;;;;;;15.27;44.27;97878.66;5031078;28;20752;-73
2021/05/05 08:00:36;;;;;;;5.75;0.82;;;;;;;14.78;45.84;97871.28;5031090;28;20029;-71
2021/05/05 08:03:02;;;;;;;8.70;1.08;;;;;;;14.00;45.81;97873.16;5040789;28;20033;-71
2021/05/05 08:05:27;;;;;;;2.83;0.80;;;;;;;13.72;44.96;97880.31;5049584;28;20039;-70
2021/05/05 08:07:54;;;;;;;6.32;1.35;;;;;;;14.39;45.03;97878.63;5050825;28;20033;-66
2021/05/05 08:10:20;;;;;;;1.20;0.73;;;;;;;14.54;45.56;97894.38;5049046;28;20100;-67
2021/05/05 08:12:45;;;;;;;7.38;1.20;;;;;;;14.83;45.24;97881.44;5048264;28;20031;-75
2021/05/05 08:15:12;;;;;;;5.22;0.98;;;;;;;13.48;47.67;97892.41;5032412;28;20025;-72
2021/05/05 08:17:37;;;;;;;4.43;1.30;;;;;;;13.87;45.33;97890.63;5051393;28;20029;-72
2021/05/05 08:20:04;;;;;;;4.20;1.00;;;;;;;15.29;44.59;97876.50;5034037;28;20557;-72
2021/05/05 08:22:29;;;;;;;1.85;0.70;;;;;;;16.63;41.29;97884.66;5052585;28;20033;-69
2021/05/05 08:24:55;;;;;;;4.70;1.10;;;;;;;18.09;38.92;97880.97;5051434;28;20029;-70
2021/05/05 08:27:22;;;;;;;3.67;0.98;;;;;;;16.48;39.60;97890.88;5055903;28;20025;-69
2021/05/05 08:29:47;;;;;;;5.07;0.70;;;;;;;17.57;38.09;97896.50;5055103;28;20028;-70
2021/05/05 08:32:13;;;;;;;4.38;0.77;;;;;;;16.64;39.10;97891.78;5036314;28;20036;-69
2021/05/05 08:34:38;;;;;;;4.30;1.30;;;;;;;15.04;39.60;97887.94;5051121;28;20033;-70
2021/05/05 08:37:03;;;;;;;7.30;0.88;;;;;;;16.37;39.41;97880.97;5026430;28;20522;-70
2021/05/05 08:39:29;;;;;;;4.32;0.90;;;;;;;16.16;38.12;97889.00;5049987;28;20021;-70
2021/05/05 08:41:57;;;;;;;5.45;1.02;;;;;;;15.12;39.90;97877.41;5031390;28;20112;-74
2021/05/05 08:44:23;;;;;;;3.75;0.80;;;;;;;13.10;43.07;97894.69;5046687;28;20028;-75
2021/05/05 08:46:50;;;;;;;3.78;0.93;;;;;;;12.60;44.56;97892.56;5059319;28;20101;-76
2021/05/05 08:49:17;;;;;;;2.75;0.82;;;;;;;15.91;40.19;97878.75;5059091;28;20052;-77
2021/05/05 08:51:43;;;;;;;4.63;1.67;;;;;;;17.06;38.12;97886.25;5028110;28;20399;-76
2021/05/05 08:54:09;;;;;;;6.10;1.27;;;;;;;16.15;40.50;97895.56;5044699;28;20108;-73
2021/05/05 08:56:37;;;;;;;3.17;0.77;;;;;;;16.41;40.40;97876.63;5050837;28;20037;-72
2021/05/05 08:59:13;;;;;;;5.72;1.05;;;;;;;16.27;39.15;97873.56;5031714;28;20036;-72
2021/05/05 09:01:40;;;;;;;3.85;0.88;;;;;;;14.84;42.34;97881.16;5046350;28;20029;-70
2021/05/05 09:04:06;;;;;;;6.22;0.90;;;;;;;12.05;46.90;97866.69;5045188;28;20021;-76
2021/05/05 09:06:49;;;;;;;3.60;1.00;;;;;;;12.57;47.33;97894.91;5037849;28;20017;-74
2021/05/05 09:09:41;;;;;;;4.15;0.90;;;;;;;11.05;49.04;97899.84;5039727;28;20033;-78
2021/05/05 09:12:11;;;;;;;6.55;0.82;;;;;;;10.35;49.93;97924.63;5014307;28;20033;-71
2021/05/05 09:14:48;;;;;;;3.25;0.93;;;;;;;10.49;50.58;97895.56;5037373;28;20028;-75
2021/05/05 09:17:22;;;;;;;5.78;1.02;;;;;;;10.83;49.46;97906.81;5033949;28;20439;-76
2021/05/05 09:19:48;;;;;;;4.35;1.05;;;;;;;11.10;49.91;97910.00;5035541;28;20017;-76
2021/05/05 09:22:36;;;;;;;3.42;0.77;;;;;;;11.12;48.67;97910.59;5051887;28;20021;-74
2021/05/05 09:25:03;;;;;;;3.13;0.98;;;;;;;11.18;49.76;97901.56;5037644;28;20043;-71
2021/05/05 09:27:33;;;;;;;5.97;1.00;;;;;;;11.72;48.14;97909.75;5035649;28;20048;-69
2021/05/05 09:30:00;;;;;;;5.28;1.38;;;;;;;11.62;47.39;97902.16;5034129;28;20020;-75
2021/05/05 09:32:25;;;;;;;4.80;0.80;;;;;;;12.06;47.01;97884.59;5045168;28;20025;-75
2021/05/05 09:34:56;;;;;;;3.30;0.68;;;;;;;11.88;46.33;97898.25;5047997;28;20075;-73
2021/05/05 09:37:23;;;;;;;3.33;0.95;;;;;;;14.40;42.56;97891.16;5048608;28;20135;-67
2021/05/05 09:39:57;;;;;;;4.70;1.13;;;;;;;13.22;43.95;97897.34;5047157;28;20084;-75
2021/05/05 09:42:22;;;;;;;4.93;0.80;;;;;;;11.79;45.28;97896.91;5012967;28;20029;-75
2021/05/05 09:44:59;;;;;;;2.53;0.85;;;;;;;11.71;45.91;97897.22;5021493;28;20025;-75
2021/05/05 09:47:44;;;;;;;5.15;0.80;;;;;;;12.60;44.05;97902.59;5043545;28;20029;-77
2021/05/05 09:50:33;;;;;;;4.13;0.90;;;;;;;14.87;39.18;97907.88;5041421;28;20017;-74
2021/05/05 09:53:16;;;;;;;9.80;1.08;;;;;;;17.75;35.58;97854.94;5015010;28;20030;-74
2021/05/05 09:56:01;;;;;;;2.90;0.75;;;;;;;17.92;35.15;97886.72;5025986;28;20036;-76
2021/05/05 09:58:35;;;;;;;3.25;0.77;;;;;;;14.54;39.13;97889.78;5034651;28;20498;-75
2021/05/05 10:01:04;;;;;;;4.53;0.70;;;;;;;16.26;38.09;97880.06;5024634;28;20079;-75
2021/05/05 10:03:55;;;;;;;8.75;1.00;;;;;;;16.26;37.54;97892.91;5043654;28;20562;-78
2021/05/05 10:06:26;;;;;;;3.78;0.75;;;;;;;18.69;34.75;97886.63;5051354;28;20025;-73
2021/05/05 10:09:04;;;;;;;3.78;0.68;;;;;;;14.45;40.39;97904.84;5052766;28;20025;-70
2021/05/05 10:11:32;;;;;;;1.98;0.93;;;;;;;15.00;40.62;97892.25;5051927;28;20056;-73
2021/05/05 10:14:08;;;;;;;5.38;0.90;;;;;;;15.30;39.41;97897.19;5053030;28;20076;-75
2021/05/05 10:16:36;;;;;;;4.03;1.20;;;;;;;15.82;38.10;97890.38;5052822;28;20036;-73
2021/05/05 10:19:06;;;;;;;6.97;1.00;;;;;;;15.54;38.56;97890.38;5051268;28;20112;-76
2021/05/05 10:21:33;;;;;;;5.95;1.00;;;;;;;16.33;35.82;97879.88;5035264;28;20033;-76
2021/05/05 10:24:00;;;;;;;3.38;1.00;;;;;;;15.52;38.19;97906.16;5051949;28;20162;-76
2021/05/05 10:26:27;;;;;;;2.50;0.90;;;;;;;16.65;36.67;97909.81;5051082;28;20035;-75
2021/05/05 10:28:53;;;;;;;4.32;0.95;;;;;;;14.80;37.76;97898.25;5043738;28;20029;-76
2021/05/05 10:31:28;;;;;;;5.10;0.80;;;;;;;13.20;39.58;97918.47;5034930;28;20052;-76
2021/05/05 10:33:58;;;;;;;2.00;0.80;;;;;;;13.68;42.19;97935.44;5043813;28;20035;-76
2021/05/05 10:36:36;;;;;;;4.18;1.02;;;;;;;13.75;39.66;97944.25;5051021;28;20056;-75
2021/05/05 10:39:26;;;;;;;3.47;0.70;;;;;;;13.34;44.97;98001.38;5035836;28;20025;-75
2021/05/05 10:42:00;;;;;;;1.20;0.28;;;;;;;10.33;58.03;98015.94;5062442;28;20478;-75
2021/05/05 10:44:36;;;;;;;0.85;0.25;;;;;;;7.85;65.48;98029.59;5055817;28;20033;-74
2021/05/05 10:47:34;;;;;;;1.92;0.30;;;;;;;6.60;71.83;98090.69;5046069;28;20068;-74
2021/05/05 10:50:06;;;;;;;1.30;0.32;;;;;;;5.53;76.24;98113.00;5019247;28;20091;-74
2021/05/05 10:52:34;;;;;;;0.90;0.40;;;;;;;4.79;80.61;98137.13;5035247;28;20029;-75
2021/05/05 10:55:10;;;;;;;0.87;0.60;;;;;;;4.36;82.67;98143.06;5036975;28;20029;-72
2021/05/05 10:57:36;;;;;;;1.70;0.50;;;;;;;4.11;83.45;98187.06;5036554;28;20120;-73
2021/05/05 11:00:09;;;;;;;4.57;0.63;;;;;;;4.02;83.92;98186.31;5036779;28;20505;-72
2021/05/05 11:02:40;;;;;;;3.05;0.98;;;;;;;3.94;84.29;98173.81;5048033;28;20045;-72
2021/05/05 11:05:14;;;;;;;1.58;0.55;;;;;;;3.92;81.75;98124.97;5050232;28;20025;-71
2021/05/05 11:07:56;;;;;;;0.47;0.45;;;;;;;4.31;82.36;98134.72;5052059;28;20203;-73
2021/05/05 11:10:40;;;;;;;1.27;0.57;;;;;;;4.82;80.79;98134.94;5049146;28;20029;-74
2021/05/05 11:13:14;;;;;;;0.90;0.57;;;;;;;5.29;78.79;98140.94;5051899;28;20021;-75
2021/05/05 11:15:43;;;;;;;3.03;0.50;;;;;;;6.68;73.40;98138.97;5034158;28;20398;-73
2021/05/05 11:18:27;;;;;;;2.75;0.43;;;;;;;7.14;73.06;98140.31;5048921;28;20108;-74
2021/05/05 11:20:54;;;;;;;1.75;0.57;;;;;;;7.54;70.80;98151.28;5049608;28;20074;-73
2021/05/05 11:23:48;;;;;;;1.58;0.75;;;;;;;7.36;71.53;98146.41;5051043;28;20017;-72
2021/05/05 11:26:25;;;;;;;3.38;0.75;;;;;;;6.89;74.10;98153.38;5016864;28;20041;-74
2021/05/05 11:29:09;;;;;;;0.90;0.50;;;;;;;7.42;73.81;98145.66;5033885;28;20040;-76
2021/05/05 11:31:47;;;;;;;3.05;0.60;;;;;;;7.56;75.09;98144.66;5032345;28;20037;-73
2021/05/05 11:34:18;;;;;;;6.57;1.00;;;;;;;8.60;70.08;98140.81;5033886;28;20033;-72
2021/05/05 11:37:03;;;;;;;1.40;0.60;;;;;;;9.69;67.63;98139.34;5034779;28;20041;-74
2021/05/05 11:39:32;;;;;;;1.98;0.50;;;;;;;10.00;64.81;98145.88;5032807;28;20021;-75
2021/05/05 11:42:01;;;;;;;2.40;0.60;;;;;;;9.36;64.54;98153.81;5034329;28;20793;-76
2021/05/05 11:44:50;;;;;;;0.98;0.60;;;;;;;11.57;61.59;98143.97;5030042;28;20068;-77
2021/05/05 11:47:17;;;;;;;1.35;0.40;;;;;;;13.54;54.40;98127.84;5038972;28;20502;-75
2021/05/05 11:49:45;;;;;;;2.90;0.73;;;;;;;12.75;55.58;98130.91;5019339;28;20044;-73
2021/05/05 11:52:29;;;;;;;1.63;0.80;;;;;;;12.41;56.83;98129.78;5051480;28;20681;-73
2021/05/05 11:55:14;;;;;;;3.58;0.63;;;;;;;12.11;57.94;98146.91;5051418;28;20024;-72